sensor_id;sensor_type;location;lat;lon;timestamp;P1;durP1;ratioP1;P2;durP2;ratioP2
4365;SDS011;2196;47.422;9.656;2023-04-24T00:01:14;1.13;;;0.30;;
4365;SDS011;2196;47.422;9.656;2023-04-24T00:03:43;0.33;;;0.20;;
4365;SDS011;2196;47.422;9.656;2023-04-24T00:06:10;0.30;;;0.30;;
4365;SDS011;2196;47.422;9.656;2023-04-24T00:08:37;0.40;;;0.30;;
4365;SDS011;2196;47.422;9.656;2023-04-24T00:11:04;0.33;;;0.33;;
4365;SDS011;2196;47.422;9.656;2023-04-24T00:13:31;0.60;;;0.40;;
4365;SDS011;2196;47.422;9.656;2023-04-24T00:15:58;0.67;;;0.30;;
4365;SDS011;2196;47.422;9.656;2023-04-24T00:18:25;1.60;;;0.50;;
4365;SDS011;2196;47.422;9.656;2023-04-24T00:20:54;0.20;;;0.20;;
4365;SDS011;2196;47.422;9.656;2023-04-24T00:23:21;0.40;;;0.40;;
4365;SDS011;2196;47.422;9.656;2023-04-24T00:25:48;0.30;;;0.30;;
4365;SDS011;2196;47.422;9.656;2023-04-24T00:28:15;0.90;;;0.30;;
4365;SDS011;2196;47.422;9.656;2023-04-24T00:30:42;2.27;;;0.43;;
4365;SDS011;2196;47.422;9.656;2023-04-24T00:33:09;0.30;;;0.30;;
4365;SDS011;2196;47.422;9.656;2023-04-24T00:35:37;0.30;;;0.20;;
4365;SDS011;2196;47.422;9.656;2023-04-24T00:38:06;0.90;;;0.40;;
4365;SDS011;2196;47.422;9.656;2023-04-24T00:40:33;0.50;;;0.50;;
4365;SDS011;2196;47.422;9.656;2023-04-24T00:43:00;0.30;;;0.30;;
4365;SDS011;2196;47.422;9.656;2023-04-24T00:45:27;0.83;;;0.30;;
4365;SDS011;2196;47.422;9.656;2023-04-24T00:47:56;0.20;;;0.20;;
4365;SDS011;2196;47.422;9.656;2023-04-24T00:50:23;0.10;;;0.10;;
4365;SDS011;2196;47.422;9.656;2023-04-24T00:52:51;0.10;;;0.10;;
4365;SDS011;2196;47.422;9.656;2023-04-24T00:55:20;0.00;;;0.00;;
4365;SDS011;2196;47.422;9.656;2023-04-24T00:57:47;0.10;;;0.10;;
4365;SDS011;2196;47.422;9.656;2023-04-24T01:00:16;0.10;;;0.10;;
4365;SDS011;2196;47.422;9.656;2023-04-24T01:02:44;0.10;;;0.07;;
4365;SDS011;2196;47.422;9.656;2023-04-24T01:05:12;0.47;;;0.10;;
4365;SDS011;2196;47.422;9.656;2023-04-24T01:07:40;1.90;;;0.10;;
4365;SDS011;2196;47.422;9.656;2023-04-24T01:10:10;0.20;;;0.20;;
4365;SDS011;2196;47.422;9.656;2023-04-24T01:12:40;1.13;;;0.10;;
4365;SDS011;2196;47.422;9.656;2023-04-24T01:15:08;0.50;;;0.10;;
4365;SDS011;2196;47.422;9.656;2023-04-24T01:17:36;0.50;;;0.07;;
4365;SDS011;2196;47.422;9.656;2023-04-24T01:20:04;0.07;;;0.07;;
4365;SDS011;2196;47.422;9.656;2023-04-24T01:22:33;0.10;;;0.10;;
4365;SDS011;2196;47.422;9.656;2023-04-24T01:25:01;0.00;;;0.00;;
4365;SDS011;2196;47.422;9.656;2023-04-24T01:27:28;0.93;;;0.10;;
4365;SDS011;2196;47.422;9.656;2023-04-24T01:29:55;0.00;;;0.00;;
4365;SDS011;2196;47.422;9.656;2023-04-24T01:32:23;0.00;;;0.00;;
4365;SDS011;2196;47.422;9.656;2023-04-24T01:34:50;0.83;;;0.10;;
4365;SDS011;2196;47.422;9.656;2023-04-24T01:37:17;0.00;;;0.00;;
4365;SDS011;2196;47.422;9.656;2023-04-24T01:39:49;0.10;;;0.10;;
4365;SDS011;2196;47.422;9.656;2023-04-24T01:42:16;0.87;;;0.10;;
4365;SDS011;2196;47.422;9.656;2023-04-24T01:44:47;0.00;;;0.00;;
4365;SDS011;2196;47.422;9.656;2023-04-24T01:47:14;0.57;;;0.07;;
4365;SDS011;2196;47.422;9.656;2023-04-24T01:49:42;0.20;;;0.20;;
4365;SDS011;2196;47.422;9.656;2023-04-24T01:52:09;1.23;;;0.47;;
4365;SDS011;2196;47.422;9.656;2023-04-24T01:54:36;0.10;;;0.10;;
4365;SDS011;2196;47.422;9.656;2023-04-24T01:57:04;0.20;;;0.20;;
4365;SDS011;2196;47.422;9.656;2023-04-24T01:59:32;0.93;;;0.17;;
4365;SDS011;2196;47.422;9.656;2023-04-24T02:02:01;0.30;;;0.20;;
4365;SDS011;2196;47.422;9.656;2023-04-24T02:04:28;1.27;;;0.10;;
4365;SDS011;2196;47.422;9.656;2023-04-24T02:06:55;0.10;;;0.10;;
4365;SDS011;2196;47.422;9.656;2023-04-24T02:09:22;1.00;;;0.10;;
4365;SDS011;2196;47.422;9.656;2023-04-24T02:11:49;0.10;;;0.10;;
4365;SDS011;2196;47.422;9.656;2023-04-24T02:14:18;1.23;;;0.10;;
4365;SDS011;2196;47.422;9.656;2023-04-24T02:16:45;0.10;;;0.10;;
4365;SDS011;2196;47.422;9.656;2023-04-24T02:19:12;1.03;;;0.10;;
4365;SDS011;2196;47.422;9.656;2023-04-24T02:21:39;0.20;;;0.20;;
4365;SDS011;2196;47.422;9.656;2023-04-24T02:24:06;0.10;;;0.10;;
4365;SDS011;2196;47.422;9.656;2023-04-24T02:26:33;0.13;;;0.10;;
4365;SDS011;2196;47.422;9.656;2023-04-24T02:29:00;0.10;;;0.10;;
4365;SDS011;2196;47.422;9.656;2023-04-24T02:31:28;0.83;;;0.67;;
4365;SDS011;2196;47.422;9.656;2023-04-24T02:33:55;0.73;;;0.30;;
4365;SDS011;2196;47.422;9.656;2023-04-24T02:36:22;1.17;;;0.10;;
4365;SDS011;2196;47.422;9.656;2023-04-24T02:38:49;0.10;;;0.10;;
4365;SDS011;2196;47.422;9.656;2023-04-24T02:41:16;1.40;;;0.10;;
4365;SDS011;2196;47.422;9.656;2023-04-24T02:43:43;0.10;;;0.10;;
4365;SDS011;2196;47.422;9.656;2023-04-24T02:46:10;1.37;;;0.30;;
4365;SDS011;2196;47.422;9.656;2023-04-24T02:48:38;0.20;;;0.10;;
4365;SDS011;2196;47.422;9.656;2023-04-24T02:51:05;0.20;;;0.20;;
4365;SDS011;2196;47.422;9.656;2023-04-24T02:53:32;1.10;;;0.10;;
4365;SDS011;2196;47.422;9.656;2023-04-24T02:55:59;1.90;;;0.20;;
4365;SDS011;2196;47.422;9.656;2023-04-24T02:58:26;0.20;;;0.20;;
4365;SDS011;2196;47.422;9.656;2023-04-24T03:00:53;0.10;;;0.10;;
4365;SDS011;2196;47.422;9.656;2023-04-24T03:03:21;0.30;;;0.10;;
4365;SDS011;2196;47.422;9.656;2023-04-24T03:05:50;0.10;;;0.10;;
4365;SDS011;2196;47.422;9.656;2023-04-24T03:08:17;0.30;;;0.20;;
4365;SDS011;2196;47.422;9.656;2023-04-24T03:10:44;0.20;;;0.20;;
4365;SDS011;2196;47.422;9.656;2023-04-24T03:13:10;1.90;;;0.03;;
4365;SDS011;2196;47.422;9.656;2023-04-24T03:15:37;0.10;;;0.10;;
4365;SDS011;2196;47.422;9.656;2023-04-24T03:18:05;0.67;;;0.10;;
4365;SDS011;2196;47.422;9.656;2023-04-24T03:20:31;0.10;;;0.07;;
4365;SDS011;2196;47.422;9.656;2023-04-24T03:23:00;0.17;;;0.17;;
4365;SDS011;2196;47.422;9.656;2023-04-24T03:25:27;0.10;;;0.10;;
4365;SDS011;2196;47.422;9.656;2023-04-24T03:27:54;1.50;;;0.20;;
4365;SDS011;2196;47.422;9.656;2023-04-24T03:30:21;0.20;;;0.20;;
4365;SDS011;2196;47.422;9.656;2023-04-24T03:32:47;0.00;;;0.00;;
4365;SDS011;2196;47.422;9.656;2023-04-24T03:35:14;0.20;;;0.20;;
4365;SDS011;2196;47.422;9.656;2023-04-24T03:37:41;0.20;;;0.20;;
4365;SDS011;2196;47.422;9.656;2023-04-24T03:40:10;0.10;;;0.10;;
4365;SDS011;2196;47.422;9.656;2023-04-24T03:42:37;0.17;;;0.10;;
4365;SDS011;2196;47.422;9.656;2023-04-24T03:45:05;1.30;;;0.20;;
4365;SDS011;2196;47.422;9.656;2023-04-24T03:47:32;0.40;;;0.40;;
4365;SDS011;2196;47.422;9.656;2023-04-24T03:49:59;0.20;;;0.20;;
4365;SDS011;2196;47.422;9.656;2023-04-24T03:52:27;0.17;;;0.17;;
4365;SDS011;2196;47.422;9.656;2023-04-24T03:54:53;0.13;;;0.10;;
4365;SDS011;2196;47.422;9.656;2023-04-24T03:57:24;0.40;;;0.10;;
4365;SDS011;2196;47.422;9.656;2023-04-24T03:59:51;0.20;;;0.20;;
4365;SDS011;2196;47.422;9.656;2023-04-24T04:02:20;0.10;;;0.10;;
4365;SDS011;2196;47.422;9.656;2023-04-24T04:04:48;0.37;;;0.20;;
4365;SDS011;2196;47.422;9.656;2023-04-24T04:07:15;1.30;;;0.20;;
4365;SDS011;2196;47.422;9.656;2023-04-24T04:09:42;0.17;;;0.10;;
4365;SDS011;2196;47.422;9.656;2023-04-24T04:12:09;0.10;;;0.10;;
4365;SDS011;2196;47.422;9.656;2023-04-24T04:14:37;1.20;;;0.20;;
4365;SDS011;2196;47.422;9.656;2023-04-24T04:17:04;0.37;;;0.20;;
4365;SDS011;2196;47.422;9.656;2023-04-24T04:19:31;0.20;;;0.20;;
4365;SDS011;2196;47.422;9.656;2023-04-24T04:21:58;0.10;;;0.10;;
4365;SDS011;2196;47.422;9.656;2023-04-24T04:24:25;0.10;;;0.10;;
4365;SDS011;2196;47.422;9.656;2023-04-24T04:26:51;0.10;;;0.10;;
4365;SDS011;2196;47.422;9.656;2023-04-24T04:29:21;0.40;;;0.40;;
4365;SDS011;2196;47.422;9.656;2023-04-24T04:31:50;0.20;;;0.20;;
4365;SDS011;2196;47.422;9.656;2023-04-24T04:34:17;0.20;;;0.10;;
4365;SDS011;2196;47.422;9.656;2023-04-24T04:36:44;0.67;;;0.20;;
4365;SDS011;2196;47.422;9.656;2023-04-24T04:39:11;0.57;;;0.10;;
4365;SDS011;2196;47.422;9.656;2023-04-24T04:41:40;0.10;;;0.10;;
4365;SDS011;2196;47.422;9.656;2023-04-24T04:44:07;0.10;;;0.10;;
4365;SDS011;2196;47.422;9.656;2023-04-24T04:46:34;0.13;;;0.00;;
4365;SDS011;2196;47.422;9.656;2023-04-24T04:49:04;0.03;;;0.03;;
4365;SDS011;2196;47.422;9.656;2023-04-24T04:51:33;0.00;;;0.00;;
4365;SDS011;2196;47.422;9.656;2023-04-24T04:54:00;0.00;;;0.00;;
4365;SDS011;2196;47.422;9.656;2023-04-24T04:56:27;0.50;;;0.00;;
4365;SDS011;2196;47.422;9.656;2023-04-24T04:58:54;0.00;;;0.00;;
4365;SDS011;2196;47.422;9.656;2023-04-24T05:01:21;2.77;;;0.20;;
4365;SDS011;2196;47.422;9.656;2023-04-24T05:03:49;0.30;;;0.20;;
4365;SDS011;2196;47.422;9.656;2023-04-24T05:06:17;0.17;;;0.17;;
4365;SDS011;2196;47.422;9.656;2023-04-24T05:08:44;0.83;;;0.10;;
4365;SDS011;2196;47.422;9.656;2023-04-24T05:11:11;0.20;;;0.10;;
4365;SDS011;2196;47.422;9.656;2023-04-24T05:13:38;0.10;;;0.10;;
4365;SDS011;2196;47.422;9.656;2023-04-24T05:16:05;0.97;;;0.20;;
4365;SDS011;2196;47.422;9.656;2023-04-24T05:18:32;0.57;;;0.20;;
4365;SDS011;2196;47.422;9.656;2023-04-24T05:20:59;0.20;;;0.20;;
4365;SDS011;2196;47.422;9.656;2023-04-24T05:23:27;3.50;;;0.30;;
4365;SDS011;2196;47.422;9.656;2023-04-24T05:25:54;0.97;;;0.20;;
4365;SDS011;2196;47.422;9.656;2023-04-24T05:28:21;1.03;;;0.23;;
4365;SDS011;2196;47.422;9.656;2023-04-24T05:30:48;0.17;;;0.17;;
4365;SDS011;2196;47.422;9.656;2023-04-24T05:33:15;0.30;;;0.30;;
4365;SDS011;2196;47.422;9.656;2023-04-24T05:35:42;0.10;;;0.10;;
4365;SDS011;2196;47.422;9.656;2023-04-24T05:38:11;0.30;;;0.20;;
4365;SDS011;2196;47.422;9.656;2023-04-24T05:40:39;0.20;;;0.20;;
4365;SDS011;2196;47.422;9.656;2023-04-24T05:43:06;0.20;;;0.10;;
4365;SDS011;2196;47.422;9.656;2023-04-24T05:45:33;1.00;;;0.27;;
4365;SDS011;2196;47.422;9.656;2023-04-24T05:48:01;0.20;;;0.20;;
4365;SDS011;2196;47.422;9.656;2023-04-24T05:50:28;1.70;;;0.03;;
4365;SDS011;2196;47.422;9.656;2023-04-24T05:52:55;0.20;;;0.20;;
4365;SDS011;2196;47.422;9.656;2023-04-24T05:55:23;0.23;;;0.20;;
4365;SDS011;2196;47.422;9.656;2023-04-24T05:57:52;0.17;;;0.17;;
4365;SDS011;2196;47.422;9.656;2023-04-24T06:00:19;0.33;;;0.20;;
4365;SDS011;2196;47.422;9.656;2023-04-24T06:02:46;0.30;;;0.27;;
4365;SDS011;2196;47.422;9.656;2023-04-24T06:05:14;0.40;;;0.40;;
4365;SDS011;2196;47.422;9.656;2023-04-24T06:07:41;0.20;;;0.20;;
4365;SDS011;2196;47.422;9.656;2023-04-24T06:10:08;0.20;;;0.20;;
4365;SDS011;2196;47.422;9.656;2023-04-24T06:12:36;0.20;;;0.20;;
4365;SDS011;2196;47.422;9.656;2023-04-24T06:15:05;0.70;;;0.10;;
4365;SDS011;2196;47.422;9.656;2023-04-24T06:17:33;0.10;;;0.10;;
4365;SDS011;2196;47.422;9.656;2023-04-24T06:20:00;0.30;;;0.20;;
4365;SDS011;2196;47.422;9.656;2023-04-24T06:22:29;1.50;;;0.30;;
4365;SDS011;2196;47.422;9.656;2023-04-24T06:24:56;0.90;;;0.30;;
4365;SDS011;2196;47.422;9.656;2023-04-24T06:27:23;0.20;;;0.20;;
4365;SDS011;2196;47.422;9.656;2023-04-24T06:29:50;0.37;;;0.10;;
4365;SDS011;2196;47.422;9.656;2023-04-24T06:32:23;1.13;;;0.30;;
4365;SDS011;2196;47.422;9.656;2023-04-24T06:34:52;0.20;;;0.17;;
4365;SDS011;2196;47.422;9.656;2023-04-24T06:37:19;0.60;;;0.60;;
4365;SDS011;2196;47.422;9.656;2023-04-24T06:39:50;2.13;;;0.40;;
4365;SDS011;2196;47.422;9.656;2023-04-24T06:42:17;0.40;;;0.30;;
4365;SDS011;2196;47.422;9.656;2023-04-24T06:44:47;0.73;;;0.60;;
4365;SDS011;2196;47.422;9.656;2023-04-24T06:47:14;0.97;;;0.90;;
4365;SDS011;2196;47.422;9.656;2023-04-24T06:49:42;1.37;;;0.20;;
4365;SDS011;2196;47.422;9.656;2023-04-24T06:52:09;1.23;;;0.40;;
4365;SDS011;2196;47.422;9.656;2023-04-24T06:54:36;0.97;;;0.63;;
4365;SDS011;2196;47.422;9.656;2023-04-24T06:57:03;0.30;;;0.30;;
4365;SDS011;2196;47.422;9.656;2023-04-24T06:59:30;0.53;;;0.53;;
4365;SDS011;2196;47.422;9.656;2023-04-24T07:01:57;0.20;;;0.20;;
4365;SDS011;2196;47.422;9.656;2023-04-24T07:04:24;2.00;;;0.40;;
4365;SDS011;2196;47.422;9.656;2023-04-24T07:06:52;0.40;;;0.23;;
4365;SDS011;2196;47.422;9.656;2023-04-24T07:09:21;0.60;;;0.43;;
4365;SDS011;2196;47.422;9.656;2023-04-24T07:11:48;0.50;;;0.37;;
4365;SDS011;2196;47.422;9.656;2023-04-24T07:14:16;0.67;;;0.30;;
4365;SDS011;2196;47.422;9.656;2023-04-24T07:16:43;0.60;;;0.30;;
4365;SDS011;2196;47.422;9.656;2023-04-24T07:19:11;1.70;;;0.40;;
4365;SDS011;2196;47.422;9.656;2023-04-24T07:21:38;1.07;;;0.30;;
4365;SDS011;2196;47.422;9.656;2023-04-24T07:24:06;0.97;;;0.43;;
4365;SDS011;2196;47.422;9.656;2023-04-24T07:26:36;0.40;;;0.40;;
4365;SDS011;2196;47.422;9.656;2023-04-24T07:29:04;0.77;;;0.60;;
4365;SDS011;2196;47.422;9.656;2023-04-24T07:31:31;0.87;;;0.43;;
4365;SDS011;2196;47.422;9.656;2023-04-24T07:33:58;2.10;;;0.30;;
4365;SDS011;2196;47.422;9.656;2023-04-24T07:36:25;1.70;;;0.20;;
4365;SDS011;2196;47.422;9.656;2023-04-24T07:38:53;0.63;;;0.30;;
4365;SDS011;2196;47.422;9.656;2023-04-24T07:41:22;0.30;;;0.30;;
4365;SDS011;2196;47.422;9.656;2023-04-24T07:43:49;0.93;;;0.33;;
4365;SDS011;2196;47.422;9.656;2023-04-24T07:46:16;1.70;;;1.50;;
4365;SDS011;2196;47.422;9.656;2023-04-24T07:48:43;0.57;;;0.53;;
4365;SDS011;2196;47.422;9.656;2023-04-24T07:51:11;1.70;;;0.40;;
4365;SDS011;2196;47.422;9.656;2023-04-24T07:53:38;0.40;;;0.30;;
4365;SDS011;2196;47.422;9.656;2023-04-24T07:56:05;0.10;;;0.10;;
4365;SDS011;2196;47.422;9.656;2023-04-24T07:58:34;0.20;;;0.20;;
4365;SDS011;2196;47.422;9.656;2023-04-24T08:01:01;0.20;;;0.20;;
4365;SDS011;2196;47.422;9.656;2023-04-24T08:03:28;0.00;;;0.00;;
4365;SDS011;2196;47.422;9.656;2023-04-24T08:05:55;0.03;;;0.03;;
4365;SDS011;2196;47.422;9.656;2023-04-24T08:08:22;0.17;;;0.13;;
4365;SDS011;2196;47.422;9.656;2023-04-24T08:10:49;0.10;;;0.10;;
4365;SDS011;2196;47.422;9.656;2023-04-24T08:13:16;0.20;;;0.20;;
4365;SDS011;2196;47.422;9.656;2023-04-24T08:15:44;1.90;;;0.40;;
4365;SDS011;2196;47.422;9.656;2023-04-24T08:18:11;0.93;;;0.10;;
4365;SDS011;2196;47.422;9.656;2023-04-24T08:20:40;0.20;;;0.20;;
4365;SDS011;2196;47.422;9.656;2023-04-24T08:23:07;0.67;;;0.30;;
4365;SDS011;2196;47.422;9.656;2023-04-24T08:25:34;0.67;;;0.20;;
4365;SDS011;2196;47.422;9.656;2023-04-24T08:28:02;1.37;;;0.20;;
4365;SDS011;2196;47.422;9.656;2023-04-24T08:30:29;0.27;;;0.27;;
4365;SDS011;2196;47.422;9.656;2023-04-24T08:32:57;0.30;;;0.30;;
4365;SDS011;2196;47.422;9.656;2023-04-24T08:35:24;0.70;;;0.30;;
4365;SDS011;2196;47.422;9.656;2023-04-24T08:37:51;2.00;;;0.30;;
4365;SDS011;2196;47.422;9.656;2023-04-24T08:40:20;2.00;;;0.40;;
4365;SDS011;2196;47.422;9.656;2023-04-24T08:42:54;0.60;;;0.40;;
4365;SDS011;2196;47.422;9.656;2023-04-24T08:45:22;0.47;;;0.47;;
4365;SDS011;2196;47.422;9.656;2023-04-24T08:47:49;0.93;;;0.70;;
4365;SDS011;2196;47.422;9.656;2023-04-24T08:50:19;2.00;;;0.50;;
4365;SDS011;2196;47.422;9.656;2023-04-24T08:52:47;0.97;;;0.97;;
4365;SDS011;2196;47.422;9.656;2023-04-24T08:55:15;0.60;;;0.60;;
4365;SDS011;2196;47.422;9.656;2023-04-24T08:57:43;0.50;;;0.30;;
4365;SDS011;2196;47.422;9.656;2023-04-24T09:00:13;0.60;;;0.40;;
4365;SDS011;2196;47.422;9.656;2023-04-24T09:02:41;5.70;;;0.50;;
4365;SDS011;2196;47.422;9.656;2023-04-24T09:05:09;1.13;;;0.40;;
4365;SDS011;2196;47.422;9.656;2023-04-24T09:07:38;0.20;;;0.20;;
4365;SDS011;2196;47.422;9.656;2023-04-24T09:10:07;0.20;;;0.20;;
4365;SDS011;2196;47.422;9.656;2023-04-24T09:12:35;1.67;;;0.60;;
4365;SDS011;2196;47.422;9.656;2023-04-24T09:15:02;0.30;;;0.30;;
4365;SDS011;2196;47.422;9.656;2023-04-24T09:17:30;1.30;;;0.20;;
4365;SDS011;2196;47.422;9.656;2023-04-24T09:19:58;0.20;;;0.20;;
4365;SDS011;2196;47.422;9.656;2023-04-24T09:22:25;0.10;;;0.10;;
4365;SDS011;2196;47.422;9.656;2023-04-24T09:25:00;0.60;;;0.20;;
4365;SDS011;2196;47.422;9.656;2023-04-24T09:27:29;0.83;;;0.20;;
4365;SDS011;2196;47.422;9.656;2023-04-24T09:29:57;0.93;;;0.33;;
4365;SDS011;2196;47.422;9.656;2023-04-24T09:32:25;0.70;;;0.43;;
4365;SDS011;2196;47.422;9.656;2023-04-24T09:35:06;0.30;;;0.30;;
4365;SDS011;2196;47.422;9.656;2023-04-24T09:37:35;1.80;;;0.30;;
4365;SDS011;2196;47.422;9.656;2023-04-24T09:40:14;0.30;;;0.30;;
4365;SDS011;2196;47.422;9.656;2023-04-24T09:42:45;0.87;;;0.40;;
4365;SDS011;2196;47.422;9.656;2023-04-24T09:45:13;1.70;;;0.50;;
4365;SDS011;2196;47.422;9.656;2023-04-24T09:47:40;0.87;;;0.50;;
4365;SDS011;2196;47.422;9.656;2023-04-24T09:50:14;3.87;;;0.40;;
4365;SDS011;2196;47.422;9.656;2023-04-24T09:52:43;0.30;;;0.30;;
4365;SDS011;2196;47.422;9.656;2023-04-24T09:55:10;0.30;;;0.30;;
4365;SDS011;2196;47.422;9.656;2023-04-24T09:57:48;1.40;;;0.57;;
4365;SDS011;2196;47.422;9.656;2023-04-24T10:00:23;0.60;;;0.40;;
4365;SDS011;2196;47.422;9.656;2023-04-24T10:02:58;1.00;;;0.77;;
4365;SDS011;2196;47.422;9.656;2023-04-24T10:05:27;1.53;;;1.50;;
4365;SDS011;2196;47.422;9.656;2023-04-24T10:08:00;0.60;;;0.60;;
4365;SDS011;2196;47.422;9.656;2023-04-24T10:10:30;0.97;;;0.60;;
4365;SDS011;2196;47.422;9.656;2023-04-24T10:12:58;2.63;;;0.73;;
4365;SDS011;2196;47.422;9.656;2023-04-24T10:15:26;1.07;;;0.67;;
4365;SDS011;2196;47.422;9.656;2023-04-24T10:17:53;0.80;;;0.80;;
4365;SDS011;2196;47.422;9.656;2023-04-24T10:20:21;0.80;;;0.80;;
4365;SDS011;2196;47.422;9.656;2023-04-24T10:22:50;0.67;;;0.50;;
4365;SDS011;2196;47.422;9.656;2023-04-24T10:25:19;0.60;;;0.60;;
4365;SDS011;2196;47.422;9.656;2023-04-24T10:27:48;1.03;;;0.60;;
4365;SDS011;2196;47.422;9.656;2023-04-24T10:30:17;0.87;;;0.73;;
4365;SDS011;2196;47.422;9.656;2023-04-24T10:32:44;2.57;;;1.20;;
4365;SDS011;2196;47.422;9.656;2023-04-24T10:35:12;1.60;;;0.73;;
4365;SDS011;2196;47.422;9.656;2023-04-24T10:37:41;1.27;;;0.50;;
4365;SDS011;2196;47.422;9.656;2023-04-24T10:40:11;0.67;;;0.67;;
4365;SDS011;2196;47.422;9.656;2023-04-24T10:42:42;2.03;;;0.60;;
4365;SDS011;2196;47.422;9.656;2023-04-24T10:45:17;0.70;;;0.70;;
4365;SDS011;2196;47.422;9.656;2023-04-24T10:47:52;1.30;;;1.17;;
4365;SDS011;2196;47.422;9.656;2023-04-24T10:50:23;0.50;;;0.50;;
4365;SDS011;2196;47.422;9.656;2023-04-24T10:52:51;0.53;;;0.53;;
4365;SDS011;2196;47.422;9.656;2023-04-24T10:58:08;0.80;;;0.80;;
4365;SDS011;2196;47.422;9.656;2023-04-24T11:00:37;1.40;;;1.30;;
4365;SDS011;2196;47.422;9.656;2023-04-24T11:03:05;1.07;;;0.60;;
4365;SDS011;2196;47.422;9.656;2023-04-24T11:05:52;0.60;;;0.60;;
4365;SDS011;2196;47.422;9.656;2023-04-24T11:08:23;2.50;;;1.03;;
4365;SDS011;2196;47.422;9.656;2023-04-24T11:10:55;0.77;;;0.77;;
4365;SDS011;2196;47.422;9.656;2023-04-24T11:13:24;0.60;;;0.60;;
4365;SDS011;2196;47.422;9.656;2023-04-24T11:18:49;3.93;;;0.63;;
4365;SDS011;2196;47.422;9.656;2023-04-24T11:21:19;0.63;;;0.63;;
4365;SDS011;2196;47.422;9.656;2023-04-24T11:23:46;1.53;;;1.07;;
4365;SDS011;2196;47.422;9.656;2023-04-24T11:26:17;1.40;;;0.70;;
4365;SDS011;2196;47.422;9.656;2023-04-24T11:28:46;1.13;;;0.80;;
4365;SDS011;2196;47.422;9.656;2023-04-24T11:34:07;1.73;;;0.80;;
4365;SDS011;2196;47.422;9.656;2023-04-24T11:36:36;0.67;;;0.63;;
4365;SDS011;2196;47.422;9.656;2023-04-24T11:39:03;0.70;;;0.70;;
4365;SDS011;2196;47.422;9.656;2023-04-24T11:41:30;0.90;;;0.90;;
4365;SDS011;2196;47.422;9.656;2023-04-24T11:43:57;0.90;;;0.90;;
4365;SDS011;2196;47.422;9.656;2023-04-24T11:46:27;1.07;;;0.93;;
4365;SDS011;2196;47.422;9.656;2023-04-24T11:48:56;0.80;;;0.80;;
4365;SDS011;2196;47.422;9.656;2023-04-24T11:51:24;7.87;;;1.17;;
4365;SDS011;2196;47.422;9.656;2023-04-24T11:53:51;1.70;;;0.70;;
4365;SDS011;2196;47.422;9.656;2023-04-24T11:56:19;1.63;;;0.90;;
4365;SDS011;2196;47.422;9.656;2023-04-24T11:58:47;0.90;;;0.90;;
4365;SDS011;2196;47.422;9.656;2023-04-24T12:01:14;1.20;;;0.80;;
4365;SDS011;2196;47.422;9.656;2023-04-24T12:03:41;1.03;;;1.03;;
4365;SDS011;2196;47.422;9.656;2023-04-24T12:06:14;2.33;;;1.07;;
4365;SDS011;2196;47.422;9.656;2023-04-24T12:08:41;3.47;;;1.50;;
4365;SDS011;2196;47.422;9.656;2023-04-24T12:11:14;2.30;;;1.47;;
4365;SDS011;2196;47.422;9.656;2023-04-24T12:13:41;1.87;;;1.77;;
4365;SDS011;2196;47.422;9.656;2023-04-24T12:16:08;1.77;;;1.00;;
4365;SDS011;2196;47.422;9.656;2023-04-24T12:18:40;1.40;;;1.30;;
4365;SDS011;2196;47.422;9.656;2023-04-24T12:21:16;3.43;;;1.13;;
4365;SDS011;2196;47.422;9.656;2023-04-24T12:23:43;3.50;;;1.23;;
4365;SDS011;2196;47.422;9.656;2023-04-24T12:26:11;1.20;;;1.10;;
4365;SDS011;2196;47.422;9.656;2023-04-24T12:28:39;0.63;;;0.63;;
4365;SDS011;2196;47.422;9.656;2023-04-24T12:31:06;1.20;;;1.00;;
4365;SDS011;2196;47.422;9.656;2023-04-24T12:33:34;1.17;;;1.07;;
4365;SDS011;2196;47.422;9.656;2023-04-24T12:36:02;0.80;;;0.80;;
4365;SDS011;2196;47.422;9.656;2023-04-24T12:38:32;2.13;;;0.93;;
4365;SDS011;2196;47.422;9.656;2023-04-24T12:41:05;1.50;;;0.77;;
4365;SDS011;2196;47.422;9.656;2023-04-24T12:43:35;3.10;;;0.77;;
4365;SDS011;2196;47.422;9.656;2023-04-24T12:46:02;1.47;;;0.87;;
4365;SDS011;2196;47.422;9.656;2023-04-24T12:48:30;1.73;;;0.80;;
4365;SDS011;2196;47.422;9.656;2023-04-24T12:50:57;2.50;;;1.20;;
4365;SDS011;2196;47.422;9.656;2023-04-24T12:53:26;2.37;;;0.90;;
4365;SDS011;2196;47.422;9.656;2023-04-24T12:55:56;1.63;;;1.13;;
4365;SDS011;2196;47.422;9.656;2023-04-24T12:58:23;1.43;;;0.83;;
4365;SDS011;2196;47.422;9.656;2023-04-24T13:00:50;1.60;;;0.57;;
4365;SDS011;2196;47.422;9.656;2023-04-24T13:03:18;1.47;;;0.90;;
4365;SDS011;2196;47.422;9.656;2023-04-24T13:05:45;4.90;;;1.30;;
4365;SDS011;2196;47.422;9.656;2023-04-24T13:08:12;1.10;;;1.00;;
4365;SDS011;2196;47.422;9.656;2023-04-24T13:10:39;0.73;;;0.73;;
4365;SDS011;2196;47.422;9.656;2023-04-24T13:13:08;1.63;;;1.00;;
4365;SDS011;2196;47.422;9.656;2023-04-24T13:15:35;0.97;;;0.93;;
4365;SDS011;2196;47.422;9.656;2023-04-24T13:18:02;4.10;;;2.10;;
4365;SDS011;2196;47.422;9.656;2023-04-24T13:20:29;1.60;;;1.50;;
4365;SDS011;2196;47.422;9.656;2023-04-24T13:22:56;2.47;;;1.63;;
4365;SDS011;2196;47.422;9.656;2023-04-24T13:25:23;1.97;;;1.47;;
4365;SDS011;2196;47.422;9.656;2023-04-24T13:27:50;1.33;;;1.30;;
4365;SDS011;2196;47.422;9.656;2023-04-24T13:30:18;1.50;;;1.37;;
4365;SDS011;2196;47.422;9.656;2023-04-24T13:32:45;1.97;;;1.53;;
4365;SDS011;2196;47.422;9.656;2023-04-24T13:35:12;1.17;;;1.17;;
4365;SDS011;2196;47.422;9.656;2023-04-24T13:37:39;1.30;;;1.30;;
4365;SDS011;2196;47.422;9.656;2023-04-24T13:40:07;2.20;;;0.90;;
4365;SDS011;2196;47.422;9.656;2023-04-24T13:42:34;2.10;;;0.80;;
4365;SDS011;2196;47.422;9.656;2023-04-24T13:45:01;1.47;;;1.23;;
4365;SDS011;2196;47.422;9.656;2023-04-24T13:47:31;0.80;;;0.80;;
4365;SDS011;2196;47.422;9.656;2023-04-24T13:49:57;2.33;;;0.70;;
4365;SDS011;2196;47.422;9.656;2023-04-24T13:52:24;1.23;;;0.90;;
4365;SDS011;2196;47.422;9.656;2023-04-24T13:54:51;0.97;;;0.97;;
4365;SDS011;2196;47.422;9.656;2023-04-24T13:57:18;1.33;;;0.83;;
4365;SDS011;2196;47.422;9.656;2023-04-24T13:59:48;2.50;;;1.20;;
4365;SDS011;2196;47.422;9.656;2023-04-24T14:02:16;1.33;;;1.20;;
4365;SDS011;2196;47.422;9.656;2023-04-24T14:04:47;2.80;;;1.13;;
4365;SDS011;2196;47.422;9.656;2023-04-24T14:07:14;1.90;;;1.40;;
4365;SDS011;2196;47.422;9.656;2023-04-24T14:09:41;3.20;;;1.60;;
4365;SDS011;2196;47.422;9.656;2023-04-24T14:12:08;2.03;;;1.50;;
4365;SDS011;2196;47.422;9.656;2023-04-24T14:14:35;1.20;;;1.20;;
4365;SDS011;2196;47.422;9.656;2023-04-24T14:17:02;4.70;;;1.53;;
4365;SDS011;2196;47.422;9.656;2023-04-24T14:19:29;1.73;;;1.20;;
4365;SDS011;2196;47.422;9.656;2023-04-24T14:21:57;1.20;;;1.00;;
4365;SDS011;2196;47.422;9.656;2023-04-24T14:24:24;1.00;;;0.90;;
4365;SDS011;2196;47.422;9.656;2023-04-24T14:26:51;1.47;;;1.07;;
4365;SDS011;2196;47.422;9.656;2023-04-24T14:29:18;1.40;;;1.40;;
4365;SDS011;2196;47.422;9.656;2023-04-24T14:31:45;0.73;;;0.73;;
4365;SDS011;2196;47.422;9.656;2023-04-24T14:34:13;1.43;;;1.00;;
4365;SDS011;2196;47.422;9.656;2023-04-24T14:36:40;1.70;;;1.23;;
4365;SDS011;2196;47.422;9.656;2023-04-24T14:39:09;1.07;;;0.97;;
4365;SDS011;2196;47.422;9.656;2023-04-24T14:41:36;1.03;;;0.90;;
4365;SDS011;2196;47.422;9.656;2023-04-24T14:44:04;1.00;;;1.00;;
4365;SDS011;2196;47.422;9.656;2023-04-24T14:46:31;1.33;;;0.87;;
4365;SDS011;2196;47.422;9.656;2023-04-24T14:48:58;1.87;;;1.00;;
4365;SDS011;2196;47.422;9.656;2023-04-24T14:51:25;2.37;;;0.90;;
4365;SDS011;2196;47.422;9.656;2023-04-24T14:53:52;0.87;;;0.87;;
4365;SDS011;2196;47.422;9.656;2023-04-24T14:56:20;0.90;;;0.90;;
4365;SDS011;2196;47.422;9.656;2023-04-24T14:58:47;1.57;;;1.23;;
4365;SDS011;2196;47.422;9.656;2023-04-24T15:01:15;2.03;;;1.07;;
4365;SDS011;2196;47.422;9.656;2023-04-24T15:03:42;0.90;;;0.90;;
4365;SDS011;2196;47.422;9.656;2023-04-24T15:06:10;3.37;;;1.10;;
4365;SDS011;2196;47.422;9.656;2023-04-24T15:08:36;1.37;;;1.17;;
4365;SDS011;2196;47.422;9.656;2023-04-24T15:11:03;1.67;;;0.60;;
4365;SDS011;2196;47.422;9.656;2023-04-24T15:13:32;2.93;;;0.80;;
4365;SDS011;2196;47.422;9.656;2023-04-24T15:15:59;0.70;;;0.70;;
4365;SDS011;2196;47.422;9.656;2023-04-24T15:18:27;2.67;;;0.87;;
4365;SDS011;2196;47.422;9.656;2023-04-24T15:20:54;1.73;;;0.90;;
4365;SDS011;2196;47.422;9.656;2023-04-24T15:23:21;0.90;;;0.90;;
4365;SDS011;2196;47.422;9.656;2023-04-24T15:25:48;1.93;;;0.90;;
4365;SDS011;2196;47.422;9.656;2023-04-24T15:28:15;0.80;;;0.80;;